Skip Navigation Links Skip Navigation Links

Current Weather

De Kalb Taylor Muni, De Kalb, Ill.

For information only: do not use for flight planning or navigation.
Latest weather
Observation time Friday, February 28, 2020 6:15 AM CST
Local time Friday, February 28, 2020 6:43 AM CST
Flight conditions Visual Meteorological Conditions
Winds
Wind direction Northwest (310°)
Wind speed 6 mph
Visibility 10 mi.
Sky condition
Ceiling 7,000 ft. overcast
Cloud layer scattered clouds 4,600 ft.
Cloud layer scattered clouds 6,000 ft.
Cloud layer overcast 7,000 ft.
Temperature 19°F
Dewpoint 10°F
Altimeter 30.03 in.Hg
Derived measurements
Relative humidity 68%
Wind chill 11°F
Density altitude -1940 ft.
Remarks
Fully automated report.
Automated weather observing station with precipitation discriminator.
METAR KDKB 281215Z AUTO 31005KT 10SM SCT046 SCT060 OVC070 M07/M12 A3003 RMK AO2 T10731121

Settings

Location code

InnerDrive.Weather 4.0.6770.0 Release CLR 4.0.30319.42000
Copyright ©2018 Inner Drive Technology. All rights reserved. Portions Copyright ©1986-2018 David Braverman.

Find weather

Site navigation


Skip Navigation Links

Place info

Page info

PayPal - The safer, easier way to pay online!

Return home.

Copyright ©2020 Inner Drive Technology. Purveyors of fine, hand-crafted computer software. Page printed 2020-02-28T12:43:31 UTC.